Time;durP1;ratioP1;P1;durP2;ratioP2;P2;SDS_P1;SDS_P2;PMS_P1;PMS_P2;Temp;Humidity;BMP_temperature;BMP_pressure;BME280_temperature;BME280_humidity;BME280_pressure;Samples;Min_cycle;Max_cycle;Signal;HPM_P1;HPM_P2
2021/09/19 00:03:42;;;;;;;12.87;11.90;;;15.90;99.90;;;;;;10375155;28;20235;-83
2021/09/19 00:08:44;;;;;;;12.20;11.40;;;15.90;99.90;;;;;;10401947;28;20198;-83
2021/09/19 00:13:46;;;;;;;11.40;10.53;;;15.90;99.90;;;;;;10400872;28;20225;-82
2021/09/19 00:18:50;;;;;;;11.40;10.40;;;15.90;99.90;;;;;;10378625;28;20701;-83
2021/09/19 00:23:52;;;;;;;13.43;12.33;;;15.80;99.90;;;;;;10374914;28;20313;-83
2021/09/19 00:28:54;;;;;;;17.67;16.07;;;15.80;99.90;;;;;;10379277;28;20263;-83
2021/09/19 00:33:57;;;;;;;13.20;12.20;;;15.80;99.90;;;;;;10377594;28;20232;-83
2021/09/19 00:39:00;;;;;;;11.30;10.33;;;15.80;99.90;;;;;;10379735;28;20579;-82
2021/09/19 00:44:08;;;;;;;11.17;10.07;;;15.80;99.90;;;;;;10378395;28;20222;-83
2021/09/19 00:49:11;;;;;;;10.20;9.30;;;15.80;99.90;;;;;;10406747;28;20292;-83
2021/09/19 00:54:16;;;;;;;11.10;10.10;;;15.70;99.90;;;;;;10375369;28;20219;-82
2021/09/19 00:59:21;;;;;;;9.63;8.93;;;15.60;99.90;;;;;;10339685;28;20302;-82
2021/09/19 01:04:25;;;;;;;9.17;8.47;;;15.60;99.90;;;;;;10369403;28;20454;-82
2021/09/19 01:09:27;;;;;;;9.87;9.17;;;15.60;99.90;;;;;;10356351;28;20566;-83
2021/09/19 01:14:32;;;;;;;10.90;10.10;;;15.60;99.90;;;;;;10365719;28;20257;-83
2021/09/19 01:19:38;;;;;;;8.80;8.10;;;15.50;99.90;;;;;;10351598;28;20220;-82
2021/09/19 01:24:42;;;;;;;9.80;9.03;;;15.50;99.90;;;;;;10368214;28;20234;-82
2021/09/19 01:29:45;;;;;;;9.60;8.90;;;15.50;99.90;;;;;;10385146;28;20642;-83
2021/09/19 13:23:28;;;;;;;6.20;5.80;;;19.70;99.90;;;;;;10467465;28;20284;-84
2021/09/19 13:28:31;;;;;;;6.57;6.03;;;19.70;99.90;;;;;;10437178;28;20626;-85
2021/09/19 13:33:34;;;;;;;6.47;6.07;;;19.70;99.90;;;;;;10429906;28;20229;-83
2021/09/19 13:38:38;;;;;;;6.63;6.13;;;19.70;99.90;;;;;;10427195;28;20225;-84
2021/09/19 13:43:40;;;;;;;7.80;7.20;;;19.70;99.90;;;;;;10426511;28;20359;-84
2021/09/19 13:48:44;;;;;;;8.00;7.40;;;19.70;99.90;;;;;;10426067;28;20232;-84
2021/09/19 13:53:48;;;;;;;7.10;6.60;;;19.70;99.90;;;;;;10425852;28;20308;-85
2021/09/19 13:58:50;;;;;;;7.60;7.07;;;19.60;99.90;;;;;;10425548;28;20672;-85
2021/09/19 14:03:53;;;;;;;7.03;6.53;;;19.60;99.90;;;;;;10441475;28;20248;-85
2021/09/19 14:08:57;;;;;;;7.37;6.87;;;19.50;99.90;;;;;;10425046;28;20648;-84
2021/09/19 14:13:59;;;;;;;6.50;6.00;;;19.40;99.90;;;;;;10441467;28;20727;-84
2021/09/19 14:19:04;;;;;;;6.80;6.30;;;19.40;99.90;;;;;;10463872;28;20212;-84
2021/09/19 14:24:17;;;;;;;7.67;7.07;;;19.50;99.90;;;;;;10467572;28;20584;-85
2021/09/19 14:29:20;;;;;;;7.37;6.77;;;19.60;99.90;;;;;;10468325;28;20321;-85
2021/09/19 14:34:22;;;;;;;6.70;6.30;;;19.70;99.90;;;;;;10466298;28;20282;-85
2021/09/19 14:39:26;;;;;;;7.37;6.60;;;19.70;99.90;;;;;;10482468;28;20281;-85
2021/09/19 14:44:28;;;;;;;5.70;5.30;;;19.70;99.90;;;;;;10498427;28;20212;-86
2021/09/19 14:49:30;;;;;;;6.43;6.03;;;19.90;99.90;;;;;;10407041;28;20241;-84
2021/09/19 14:54:34;;;;;;;6.43;5.93;;;20.00;99.90;;;;;;10398963;28;20222;-85
2021/09/19 14:59:36;;;;;;;6.90;6.30;;;20.10;99.90;;;;;;10382807;28;20635;-84
2021/09/19 15:04:39;;;;;;;6.13;5.73;;;20.20;99.90;;;;;;10416766;28;20236;-84
2021/09/19 15:09:43;;;;;;;5.63;5.33;;;20.20;99.90;;;;;;10389861;28;20248;-84
2021/09/19 15:14:45;;;;;;;6.00;5.60;;;20.20;99.90;;;;;;10438580;28;20245;-84
2021/09/19 15:19:47;;;;;;;5.70;5.30;;;20.10;99.90;;;;;;10437895;28;20203;-85
2021/09/19 15:24:51;;;;;;;6.10;5.70;;;20.10;99.90;;;;;;10423974;28;20219;-84
2021/09/19 15:29:53;;;;;;;6.73;6.23;;;20.00;99.90;;;;;;10423821;28;20682;-84
2021/09/19 15:34:55;;;;;;;5.67;5.20;;;20.00;99.90;;;;;;10423006;28;20221;-84
2021/09/19 15:40:05;;;;;;;5.80;5.40;;;19.90;99.90;;;;;;10422876;28;20284;-83
2021/09/19 15:45:09;;;;;;;6.13;5.73;;;19.90;99.90;;;;;;10422130;28;20332;-86
2021/09/19 15:50:12;;;;;;;8.07;7.37;;;19.70;99.90;;;;;;10407702;28;20233;-84
2021/09/19 15:55:23;;;;;;;6.37;5.87;;;19.70;99.90;;;;;;10532885;28;20500;-85
2021/09/19 16:00:25;;;;;;;6.40;6.00;;;19.60;99.90;;;;;;10532582;28;20195;-85
2021/09/19 16:05:38;;;;;;;6.40;6.00;;;19.50;99.90;;;;;;10533044;28;20212;-89
2021/09/19 16:11:01;;;;;;;6.30;5.90;;;19.40;99.90;;;;;;10530468;28;20223;-84
2021/09/19 16:16:04;;;;;;;6.53;6.13;;;19.40;99.90;;;;;;10528883;28;20200;-85
2021/09/19 16:21:07;;;;;;;7.03;6.00;;;19.30;99.90;;;;;;10519001;28;20244;-84
2021/09/19 16:26:10;;;;;;;6.23;5.90;;;19.30;99.90;;;;;;10521049;28;20196;-84
2021/09/19 16:31:12;;;;;;;6.77;6.17;;;19.20;99.90;;;;;;10507629;28;20231;-85
2021/09/19 16:36:48;;;;;;;5.67;5.37;;;19.20;99.90;;;;;;10506007;28;20196;-85
2021/09/19 16:41:52;;;;;;;6.40;6.00;;;19.20;99.90;;;;;;10506657;28;20216;-85
2021/09/19 16:46:55;;;;;;;5.83;5.43;;;19.10;99.90;;;;;;10501408;28;20577;-85
2021/09/19 16:57:52;;;;;;;6.87;6.37;;;19.00;99.90;;;;;;10463772;28;20279;-84
2021/09/19 17:02:54;;;;;;;6.50;6.00;;;19.00;99.90;;;;;;10458415;28;20240;-84
2021/09/19 17:07:57;;;;;;;6.33;5.70;;;18.90;99.90;;;;;;10468267;28;20217;-84
2021/09/19 17:13:00;;;;;;;6.00;5.60;;;18.90;99.90;;;;;;10476896;28;20240;-84
2021/09/19 17:18:10;;;;;;;5.43;5.13;;;18.80;99.90;;;;;;10474835;28;20681;-84
2021/09/19 17:23:24;;;;;;;6.30;5.80;;;18.80;99.90;;;;;;10481835;28;20212;-83
2021/09/19 17:28:28;;;;;;;5.70;5.30;;;18.70;99.90;;;;;;10495532;28;20192;-84
2021/09/19 17:33:50;;;;;;;6.40;5.90;;;18.60;99.90;;;;;;10494026;28;20224;-85
2021/09/19 17:38:58;;;;;;;6.47;6.07;;;18.60;99.90;;;;;;10491888;28;20765;-84
2021/09/19 17:44:01;;;;;;;6.53;6.13;;;18.50;99.90;;;;;;10476264;28;20209;-85
2021/09/19 17:49:03;;;;;;;6.30;5.90;;;18.50;99.90;;;;;;10510333;28;20287;-85
2021/09/19 17:54:06;;;;;;;6.63;6.23;;;18.40;99.90;;;;;;10493610;28;20220;-85
2021/09/19 17:59:10;;;;;;;9.77;9.07;;;18.30;99.90;;;;;;10494478;28;20189;-85
2021/09/19 18:04:18;;;;;;;15.23;14.13;;;18.30;99.90;;;;;;10494753;28;20219;-85
2021/09/19 18:14:56;;;;;;;7.03;6.63;;;18.10;99.90;;;;;;10507260;28;20577;-84
2021/09/19 18:19:59;;;;;;;6.30;5.90;;;18.00;99.90;;;;;;10463408;28;20257;-85
2021/09/19 18:25:01;;;;;;;6.77;6.20;;;17.90;99.90;;;;;;10470794;28;20225;-85
2021/09/19 18:30:07;;;;;;;6.50;6.00;;;17.90;99.90;;;;;;10492755;28;20267;-85
2021/09/19 18:35:10;;;;;;;7.40;6.80;;;17.90;99.90;;;;;;10492829;28;20220;-84
2021/09/19 18:40:14;;;;;;;6.50;6.00;;;17.90;99.90;;;;;;10474692;28;20688;-86
2021/09/19 18:45:20;;;;;;;7.33;6.83;;;18.00;99.90;;;;;;10497265;28;20695;-84
2021/09/19 18:50:22;;;;;;;7.07;6.57;;;18.00;99.90;;;;;;10475114;28;20638;-84
2021/09/19 18:55:31;;;;;;;5.60;5.20;;;18.10;99.90;;;;;;10489307;28;20231;-84
2021/09/19 19:00:35;;;;;;;6.57;6.17;;;18.10;99.90;;;;;;10472464;28;20670;-84
2021/09/19 19:05:40;;;;;;;6.17;5.77;;;18.20;99.90;;;;;;10480750;28;20223;-84
2021/09/19 19:10:42;;;;;;;6.53;6.03;;;18.20;99.90;;;;;;10495138;28;20220;-85
2021/09/19 19:15:46;;;;;;;6.80;6.30;;;18.20;99.90;;;;;;10484697;28;20531;-84
2021/09/19 19:20:49;;;;;;;6.80;6.20;;;18.20;99.90;;;;;;10471931;28;20307;-83
2021/09/19 19:25:52;;;;;;;6.33;5.90;;;18.20;99.90;;;;;;10490814;28;20203;-84
2021/09/19 19:30:55;;;;;;;6.13;5.73;;;18.20;99.90;;;;;;10475136;28;20209;-83
2021/09/19 19:36:03;;;;;;;6.20;5.80;;;18.20;99.90;;;;;;10497216;28;20431;-84
2021/09/19 19:41:07;;;;;;;7.23;6.63;;;18.20;99.90;;;;;;10482467;28;20217;-83
2021/09/19 19:46:10;;;;;;;7.03;6.60;;;18.20;99.90;;;;;;10439821;28;20193;-83
2021/09/19 19:51:13;;;;;;;6.63;6.23;;;18.20;99.90;;;;;;10456786;28;20224;-84
2021/09/19 19:56:24;;;;;;;6.30;5.90;;;18.20;99.90;;;;;;10493366;28;20288;-84
2021/09/19 20:01:48;;;;;;;6.60;6.10;;;18.20;99.90;;;;;;10497741;28;20208;-84
2021/09/19 20:07:06;;;;;;;7.47;6.97;;;18.20;99.90;;;;;;10496616;28;20209;-84
2021/09/19 20:12:13;;;;;;;6.30;5.90;;;18.20;99.90;;;;;;10499587;28;20600;-83
2021/09/19 20:17:22;;;;;;;5.90;5.50;;;18.20;99.90;;;;;;10473553;28;20546;-83
2021/09/19 20:22:24;;;;;;;7.03;6.53;;;18.10;99.90;;;;;;10482701;28;20680;-83
2021/09/19 20:27:27;;;;;;;6.70;6.30;;;18.00;99.90;;;;;;10501915;28;20200;-84
2021/09/19 20:32:42;;;;;;;6.50;6.00;;;17.90;99.90;;;;;;10487071;28;20362;-84
2021/09/19 20:37:47;;;;;;;7.30;6.80;;;17.80;99.90;;;;;;10506134;28;20192;-83
2021/09/19 20:42:49;;;;;;;6.47;6.07;;;17.70;99.90;;;;;;10516563;28;20624;-83
2021/09/19 20:47:53;;;;;;;7.20;6.50;;;17.70;99.90;;;;;;10492522;28;20653;-84
2021/09/19 20:52:55;;;;;;;6.80;6.20;;;17.50;99.90;;;;;;10510729;28;20224;-83
2021/09/19 20:57:57;;;;;;;6.33;5.93;;;17.40;99.90;;;;;;10494447;28;20595;-83
2021/09/19 21:03:03;;;;;;;5.93;5.53;;;17.30;99.90;;;;;;10492480;28;20311;-84
2021/09/19 21:08:07;;;;;;;6.07;5.67;;;17.20;99.90;;;;;;10510691;28;20310;-83
2021/09/19 21:13:13;;;;;;;6.23;5.83;;;17.10;99.90;;;;;;10494518;28;20234;-83
2021/09/19 21:18:21;;;;;;;6.73;6.30;;;17.00;99.90;;;;;;10495060;28;20676;-83
2021/09/19 21:23:28;;;;;;;6.40;5.90;;;16.80;99.90;;;;;;10493800;28;20213;-84
2021/09/19 21:28:31;;;;;;;5.43;5.03;;;16.80;99.90;;;;;;10495171;28;20197;-84
2021/09/19 21:33:37;;;;;;;7.70;7.10;;;16.60;99.90;;;;;;10494263;28;20243;-84
2021/09/19 21:38:39;;;;;;;6.53;6.13;;;16.60;99.90;;;;;;10512851;28;20563;-85
2021/09/19 21:43:41;;;;;;;7.13;6.63;;;16.50;99.90;;;;;;10513616;28;20684;-84
2021/09/19 21:48:44;;;;;;;7.93;7.40;;;16.40;99.90;;;;;;10533423;28;20185;-84
2021/09/19 21:53:49;;;;;;;7.00;6.50;;;16.40;99.90;;;;;;10510215;28;20284;-83
2021/09/19 21:58:52;;;;;;;6.77;6.20;;;16.40;99.90;;;;;;10507712;28;20188;-84
2021/09/19 22:03:55;;;;;;;7.87;7.27;;;16.40;99.90;;;;;;10488973;28;20279;-84
2021/09/19 22:08:58;;;;;;;7.00;6.40;;;16.50;99.90;;;;;;10489713;28;20197;-84
2021/09/19 22:14:15;;;;;;;7.23;6.73;;;16.50;99.90;;;;;;10507501;28;20292;-84
2021/09/19 22:19:19;;;;;;;7.03;6.60;;;16.50;99.90;;;;;;10507008;28;20238;-84
2021/09/19 22:24:22;;;;;;;6.70;6.30;;;16.50;99.90;;;;;;10508256;28;20272;-84
2021/09/19 22:29:24;;;;;;;6.87;6.37;;;16.50;99.90;;;;;;10493436;28;20193;-84
2021/09/19 22:34:28;;;;;;;7.23;6.73;;;16.50;99.90;;;;;;10490424;28;20669;-84
2021/09/19 22:39:30;;;;;;;7.50;6.90;;;16.60;99.90;;;;;;10504685;28;20219;-84
2021/09/19 22:44:32;;;;;;;7.20;6.80;;;16.60;99.90;;;;;;10505307;28;20208;-84
2021/09/19 22:49:39;;;;;;;7.80;7.20;;;16.70;99.90;;;;;;10503940;28;20265;-84
2021/09/19 22:54:42;;;;;;;7.53;6.97;;;16.80;99.90;;;;;;10503930;28;20247;-84
2021/09/19 22:59:44;;;;;;;7.23;6.73;;;16.80;99.90;;;;;;10504050;28;20280;-84
2021/09/19 23:04:48;;;;;;;6.93;6.43;;;16.90;99.90;;;;;;10480206;28;20212;-83
2021/09/19 23:09:50;;;;;;;7.73;7.00;;;16.90;99.90;;;;;;10498778;28;20276;-82
2021/09/19 23:14:52;;;;;;;6.73;6.33;;;17.00;99.90;;;;;;10501890;28;20222;-82
2021/09/19 23:19:56;;;;;;;7.53;7.00;;;17.00;99.90;;;;;;10501730;28;20199;-82
2021/09/19 23:24:58;;;;;;;7.60;7.10;;;17.00;99.90;;;;;;10484187;28;20208;-82
2021/09/19 23:30:00;;;;;;;7.27;6.77;;;17.00;99.90;;;;;;10501849;28;20552;-82
2021/09/19 23:35:05;;;;;;;6.70;6.30;;;17.00;99.90;;;;;;10503585;28;20294;-82
2021/09/19 23:40:08;;;;;;;7.43;6.93;;;17.00;99.90;;;;;;10486850;28;20193;-82
2021/09/19 23:45:11;;;;;;;7.37;6.83;;;17.00;99.90;;;;;;10505971;28;20212;-82
2021/09/19 23:50:14;;;;;;;7.20;6.60;;;17.00;99.90;;;;;;10485668;28;20238;-82
2021/09/19 23:55:16;;;;;;;7.30;6.80;;;17.00;99.90;;;;;;10502648;28;20220;-82
